Terminal Aerodrome Forecast
Issued by NWS Melbourne, FL

Home | Current Version | Previous Version | Text Only | Print | Product List | Glossary On
Versions: 1 2 3 4 5 6 7 8 9 10 11 12 13 14 15 16 17 18 19 20
000
FTUS42 KMLB 062116 AAA
TAFVRB
TAF AMD
KVRB 062116Z 0621/0718 02012KT P6SM FEW012 SCT025
     FM070000 36012KT P6SM OVC008
     FM070500 01013KT P6SM OVC004
     FM071400 03014G21KT P6SM BKN010 OVC015=

USA.gov is the U.S. government's official web portal to all federal, state and local government web resources and services.